createdAt,value
2023-04-18T00:01:29.415Z,98274.03
2023-04-18T00:04:35.473Z,98275.66
2023-04-18T00:07:46.280Z,98288.09
2023-04-18T00:10:52.362Z,98285.09
2023-04-18T00:14:00.172Z,98279.81
2023-04-18T00:18:12.960Z,98277.13
2023-04-18T00:21:25.917Z,98287.06
2023-04-18T00:24:34.595Z,98279.25
2023-04-18T00:27:42.665Z,98289.03
2023-04-18T00:30:51.073Z,98282.91
2023-04-18T00:33:57.910Z,98281.53
2023-04-18T00:37:04.014Z,98285.38
2023-04-18T00:40:21.772Z,98281.06
2023-04-18T00:43:28.490Z,98283.25
2023-04-18T00:46:35.319Z,98280.75
2023-04-18T00:49:42.010Z,98269.31
2023-04-18T00:52:52.621Z,98264.38
2023-04-18T00:56:01.602Z,98265.00
2023-04-18T00:59:10.511Z,98264.50
2023-04-18T01:02:17.816Z,98264.38
2023-04-18T01:05:41.739Z,98259.22
2023-04-18T01:08:49.282Z,98257.22
2023-04-18T01:12:00.675Z,98254.75
2023-04-18T01:15:07.851Z,98256.41
2023-04-18T01:18:17.528Z,98256.41
2023-04-18T01:22:12.659Z,98251.59
2023-04-18T01:25:23.498Z,98247.44
2023-04-18T01:28:30.166Z,98255.25
2023-04-18T01:31:39.205Z,98250.97
2023-04-18T01:34:46.439Z,98252.56
2023-04-18T01:37:59.468Z,98256.25
2023-04-18T01:41:16.836Z,98260.06
2023-04-18T01:44:23.753Z,98253.91
2023-04-18T01:47:29.803Z,98253.56
2023-04-18T01:50:36.823Z,98262.22
2023-04-18T01:53:42.886Z,98265.16
2023-04-18T01:56:53.187Z,98245.91
2023-04-18T01:59:59.541Z,98254.88
2023-04-18T02:03:07.011Z,98256.69
2023-04-18T02:06:13.259Z,98262.16
2023-04-18T02:09:20.411Z,98253.38
2023-04-18T02:12:29.169Z,98248.44
2023-04-18T02:15:36.254Z,98243.63
2023-04-18T02:18:42.218Z,98252.91
2023-04-18T02:21:49.095Z,98257.56
2023-04-18T02:24:55.109Z,98247.59
2023-04-18T02:28:16.811Z,98250.41
2023-04-18T02:31:44.921Z,98245.13
2023-04-18T02:34:55.012Z,98260.00
2023-04-18T02:38:01.356Z,98264.31
2023-04-18T02:41:15.369Z,98261.63
2023-04-18T02:44:28.318Z,98261.66
2023-04-18T02:47:47.077Z,98263.16
2023-04-18T02:51:04.263Z,98264.13
2023-04-18T02:54:13.284Z,98262.81
2023-04-18T02:57:42.010Z,98258.47
2023-04-18T03:01:13.355Z,98276.75
2023-04-18T03:04:41.875Z,98273.41
2023-04-18T03:07:49.583Z,98265.47
2023-04-18T03:10:57.170Z,98268.97
2023-04-18T03:14:06.015Z,98268.81
2023-04-18T03:17:36.531Z,98260.84
2023-04-18T03:20:45.783Z,98263.53
2023-04-18T03:23:53.422Z,98273.16
2023-04-18T03:27:02.492Z,98261.88
2023-04-18T03:30:15.364Z,98270.19
2023-04-18T03:33:29.079Z,98269.22
2023-04-18T03:36:47.295Z,98273.84
2023-04-18T03:39:55.109Z,98270.19
2023-04-18T03:43:05.036Z,98269.03
2023-04-18T03:46:12.116Z,98270.84
2023-04-18T03:49:20.989Z,98271.19
2023-04-18T03:52:29.839Z,98272.47
2023-04-18T03:55:36.744Z,98279.16
2023-04-18T03:58:44.205Z,98282.13
2023-04-18T04:01:50.909Z,98282.00
2023-04-18T04:05:12.158Z,98285.63
2023-04-18T04:08:31.798Z,98284.97
2023-04-18T04:11:38.800Z,98297.44
2023-04-18T04:14:53.845Z,98300.59
2023-04-18T04:18:00.735Z,98308.00
2023-04-18T04:21:21.154Z,98306.03
2023-04-18T04:24:33.193Z,98307.06
2023-04-18T04:27:39.750Z,98319.63
2023-04-18T04:30:49.179Z,98314.72
2023-04-18T04:33:55.856Z,98311.06
2023-04-18T04:37:06.500Z,98323.00
2023-04-18T04:40:19.569Z,98329.59
2023-04-18T04:44:04.502Z,98327.66
2023-04-18T04:47:14.405Z,98336.09
2023-04-18T04:50:22.564Z,98336.09
2023-04-18T04:53:33.344Z,98338.13
2023-04-18T04:56:41.657Z,98338.25
2023-04-18T04:59:47.665Z,98342.78
2023-04-18T05:02:55.664Z,98347.75
2023-04-18T05:06:03.222Z,98353.91
2023-04-18T05:09:12.567Z,98357.56
2023-04-18T05:12:18.445Z,98353.28
2023-04-18T05:15:25.942Z,98351.41
2023-04-18T05:18:34.361Z,98355.22
2023-04-18T05:21:43.797Z,98363.00
2023-04-18T05:24:52.422Z,98364.59
2023-04-18T05:27:59.112Z,98375.91
2023-04-18T05:31:05.166Z,98378.25
2023-04-18T05:34:12.382Z,98382.41
2023-04-18T05:37:18.696Z,98388.25
2023-04-18T05:40:30.332Z,98379.09
2023-04-18T05:43:36.143Z,98384.72
2023-04-18T05:46:43.080Z,98382.41
2023-04-18T05:49:49.086Z,98386.56
2023-04-18T05:52:59.150Z,98395.22
2023-04-18T05:56:08.880Z,98397.19
2023-04-18T05:59:16.410Z,98399.38
2023-04-18T06:02:22.620Z,98408.50
2023-04-18T06:05:32.792Z,98398.88
2023-04-18T06:08:38.800Z,98401.16
2023-04-18T06:11:48.224Z,98399.53
2023-04-18T06:14:54.159Z,98402.84
2023-04-18T06:18:00.958Z,98413.66
2023-04-18T06:21:06.956Z,98412.66
2023-04-18T06:24:13.867Z,98406.84
2023-04-18T06:27:30.516Z,98409.19
2023-04-18T06:30:38.088Z,98416.00
2023-04-18T06:33:43.925Z,98423.13
2023-04-18T06:36:50.840Z,98411.13
2023-04-18T06:39:56.873Z,98413.97
2023-04-18T06:43:06.548Z,98418.97
2023-04-18T06:46:12.675Z,98417.47
2023-04-18T06:49:20.770Z,98429.19
2023-04-18T06:52:31.202Z,98427.06
2023-04-18T06:55:39.013Z,98428.44
2023-04-18T06:58:47.841Z,98433.56
2023-04-18T07:01:54.903Z,98440.34
2023-04-18T07:05:00.988Z,98440.22
2023-04-18T07:08:07.757Z,98446.06
2023-04-18T07:11:15.972Z,98442.91
2023-04-18T07:14:28.785Z,98442.69
2023-04-18T07:17:36.283Z,98451.13
2023-04-18T07:20:45.968Z,98447.69
2023-04-18T07:23:52.512Z,98445.59
2023-04-18T07:26:59.846Z,98455.06
2023-04-18T07:30:10.813Z,98449.09
2023-04-18T07:33:17.884Z,98454.44
2023-04-18T07:36:24.566Z,98437.66
2023-04-18T07:39:32.235Z,98447.66
2023-04-18T07:42:40.836Z,98457.25
2023-04-18T07:45:50.237Z,98455.94
2023-04-18T07:48:56.090Z,98457.41
2023-04-18T07:52:02.976Z,98460.25
2023-04-18T07:55:10.949Z,98461.81
2023-04-18T07:58:17.866Z,98460.13
2023-04-18T08:01:27.588Z,98458.78
2023-04-18T08:04:34.611Z,98459.31
2023-04-18T08:07:40.668Z,98456.84
2023-04-18T08:10:47.499Z,98465.97
2023-04-18T08:13:53.570Z,98467.84
2023-04-18T08:17:02.905Z,98456.34
2023-04-18T08:20:10.630Z,98469.22
2023-04-18T08:23:17.438Z,98464.16
2023-04-18T08:26:23.458Z,98472.66
2023-04-18T08:29:30.212Z,98467.56
2023-04-18T08:32:39.950Z,98477.78
2023-04-18T08:35:46.836Z,98478.31
2023-04-18T08:38:52.899Z,98487.75
2023-04-18T08:42:03.511Z,98478.06
2023-04-18T08:45:14.071Z,98482.56
2023-04-18T08:48:23.355Z,98478.84
2023-04-18T08:51:33.653Z,98487.03
2023-04-18T08:54:42.318Z,98486.56
2023-04-18T08:57:48.485Z,98481.25
2023-04-18T09:00:56.582Z,98483.75
2023-04-18T09:04:08.384Z,98488.06
2023-04-18T09:07:16.834Z,98487.91
2023-04-18T09:10:46.843Z,98492.78
2023-04-18T09:13:53.747Z,98491.13
2023-04-18T09:17:00.556Z,98480.22
2023-04-18T09:20:41.559Z,98472.75
2023-04-18T09:23:48.039Z,98484.66
2023-04-18T09:26:57.461Z,98472.13
2023-04-18T09:30:03.357Z,98477.50
2023-04-18T09:33:13.106Z,98479.31
2023-04-18T09:36:28.022Z,98472.13
2023-04-18T09:39:34.812Z,98474.81
2023-04-18T09:42:41.223Z,98479.09
2023-04-18T09:45:50.099Z,98486.00
2023-04-18T09:48:56.123Z,98472.22
2023-04-18T09:52:11.623Z,98467.16
2023-04-18T09:55:21.577Z,98470.91
2023-04-18T09:58:42.421Z,98480.13
2023-04-18T10:01:48.823Z,98465.06
2023-04-18T10:05:25.012Z,98469.72
2023-04-18T10:08:36.018Z,98459.59
2023-04-18T10:11:43.702Z,98466.38
2023-04-18T10:14:50.423Z,98460.16
2023-04-18T10:18:05.248Z,98461.25
2023-04-18T10:21:12.894Z,98454.25
2023-04-18T10:24:53.720Z,98457.41
2023-04-18T10:28:16.527Z,98464.41
2023-04-18T10:31:26.276Z,98453.19
2023-04-18T10:34:32.205Z,98449.06
2023-04-18T10:38:05.982Z,98457.09
2023-04-18T10:41:29.916Z,98440.25
2023-04-18T10:44:36.702Z,98445.91
2023-04-18T10:47:42.773Z,98447.75
2023-04-18T10:51:22.293Z,98436.38
2023-04-18T10:54:42.113Z,98436.69
2023-04-18T10:57:56.984Z,98443.16
2023-04-18T11:01:09.252Z,98440.91
2023-04-18T11:04:17.090Z,98443.41
2023-04-18T11:07:23.463Z,98443.28
2023-04-18T11:10:31.245Z,98440.03
2023-04-18T11:13:39.965Z,98427.97
2023-04-18T11:16:46.991Z,98425.59
2023-04-18T11:19:53.939Z,98431.69
2023-04-18T11:23:03.008Z,98440.41
2023-04-18T11:26:09.588Z,98437.88
2023-04-18T11:29:21.008Z,98434.28
2023-04-18T11:32:27.425Z,98438.63
2023-04-18T11:35:34.483Z,98428.31
2023-04-18T11:38:44.521Z,98439.69
2023-04-18T11:41:53.291Z,98438.25
2023-04-18T11:45:05.044Z,98432.03
2023-04-18T11:48:11.895Z,98428.69
2023-04-18T11:51:38.880Z,98423.59
2023-04-18T11:54:47.990Z,98428.28
2023-04-18T11:57:56.284Z,98422.03
2023-04-18T12:01:20.149Z,98426.88
2023-04-18T12:04:26.468Z,98427.28
2023-04-18T12:07:41.957Z,98417.00
2023-04-18T12:10:52.080Z,98434.28
2023-04-18T12:14:01.637Z,98430.38
2023-04-18T12:17:11.570Z,98429.72
2023-04-18T12:20:18.711Z,98421.91
2023-04-18T12:23:37.478Z,98423.56
2023-04-18T12:26:49.482Z,98415.09
2023-04-18T12:29:55.387Z,98406.97
2023-04-18T12:33:06.994Z,98417.28
2023-04-18T12:36:13.350Z,98411.91
2023-04-18T12:39:20.077Z,98411.97
2023-04-18T12:42:26.028Z,98414.75
2023-04-18T12:45:33.238Z,98393.97
2023-04-18T12:48:41.770Z,98404.94
2023-04-18T12:51:51.697Z,98407.19
2023-04-18T12:54:58.471Z,98407.31
2023-04-18T12:58:05.612Z,98398.91
2023-04-18T13:01:11.547Z,98396.22
2023-04-18T13:04:21.413Z,98407.41
2023-04-18T13:07:28.064Z,98398.78
2023-04-18T13:10:35.434Z,98386.38
2023-04-18T13:13:41.431Z,98395.00
2023-04-18T13:16:49.035Z,98389.50
2023-04-18T13:19:57.787Z,98397.13
2023-04-18T13:23:06.233Z,98389.25
2023-04-18T13:26:12.365Z,98397.53
2023-04-18T13:29:19.307Z,98398.78
2023-04-18T13:32:25.696Z,98396.72
2023-04-18T13:35:35.165Z,98394.84
2023-04-18T13:38:41.057Z,98394.88
2023-04-18T13:41:47.957Z,98397.56
2023-04-18T13:44:54.255Z,98384.72
2023-04-18T13:48:08.071Z,98390.09
2023-04-18T13:51:22.345Z,98393.00
2023-04-18T13:54:30.683Z,98398.59
2023-04-18T13:57:37.634Z,98401.47
2023-04-18T14:00:44.295Z,98395.69
2023-04-18T14:03:50.499Z,98382.66
2023-04-18T14:07:00.384Z,98394.63
2023-04-18T14:10:09.690Z,98396.31
2023-04-18T14:13:16.948Z,98390.94
2023-04-18T14:16:26.372Z,98391.13
2023-04-18T14:19:33.270Z,98392.19
2023-04-18T14:22:41.873Z,98398.78
2023-04-18T14:25:49.337Z,98395.84
2023-04-18T14:28:55.260Z,98398.75
2023-04-18T14:32:08.103Z,98392.16
2023-04-18T14:35:23.685Z,98386.41
2023-04-18T14:38:33.123Z,98389.69
2023-04-18T14:41:39.069Z,98390.75
2023-04-18T14:44:46.293Z,98398.75
2023-04-18T14:47:52.444Z,98395.63
2023-04-18T14:51:06.524Z,98392.75
2023-04-18T14:54:15.300Z,98393.97
2023-04-18T14:57:22.398Z,98387.38
2023-04-18T15:00:28.682Z,98395.63
2023-04-18T15:03:41.243Z,98397.34
2023-04-18T15:06:47.289Z,98393.81
2023-04-18T15:10:01.774Z,98386.38
2023-04-18T15:13:08.071Z,98391.53
2023-04-18T15:16:15.039Z,98394.06
2023-04-18T15:19:21.021Z,98394.44
2023-04-18T15:22:28.113Z,98388.66
2023-04-18T15:25:36.695Z,98398.34
2023-04-18T15:28:43.496Z,98398.13
2023-04-18T15:31:49.813Z,98395.88
2023-04-18T15:34:56.708Z,98390.50
2023-04-18T15:38:02.651Z,98395.88
2023-04-18T15:41:15.026Z,98402.03
2023-04-18T15:44:21.036Z,98397.03
2023-04-18T15:47:28.474Z,98400.94
2023-04-18T15:50:34.468Z,98406.06
2023-04-18T15:53:41.728Z,98403.38
2023-04-18T15:56:50.220Z,98404.69
2023-04-18T15:59:57.075Z,98411.97
2023-04-18T16:03:03.131Z,98406.69
2023-04-18T16:06:10.252Z,98401.06
2023-04-18T16:09:16.663Z,98408.97
2023-04-18T16:12:26.078Z,98406.22
2023-04-18T16:15:35.864Z,98413.47
2023-04-18T16:18:43.159Z,98407.56
2023-04-18T16:21:49.407Z,98402.84
2023-04-18T16:24:56.557Z,98413.91
2023-04-18T16:28:05.223Z,98415.47
2023-04-18T16:31:12.113Z,98411.69
2023-04-18T16:34:18.432Z,98415.72
2023-04-18T16:37:25.332Z,98413.94
2023-04-18T16:40:32.256Z,98414.38
2023-04-18T16:43:44.957Z,98417.44
2023-04-18T16:46:52.642Z,98412.88
2023-04-18T16:50:00.932Z,98417.19
2023-04-18T16:53:27.984Z,98411.84
2023-04-18T16:56:35.126Z,98406.88
2023-04-18T16:59:46.076Z,98401.44
2023-04-18T17:02:56.308Z,98400.22
2023-04-18T17:06:02.388Z,98410.34
2023-04-18T17:09:09.242Z,98412.13
2023-04-18T17:12:15.197Z,98422.00
2023-04-18T17:15:25.432Z,98423.31
2023-04-18T17:18:31.525Z,98423.13
2023-04-18T17:21:39.215Z,98426.81
2023-04-18T17:24:45.461Z,98428.53
2023-04-18T17:27:52.381Z,98425.25
2023-04-18T17:31:05.082Z,98429.13
2023-04-18T17:34:11.957Z,98433.59
2023-04-18T17:37:17.944Z,98434.53
2023-04-18T17:40:25.107Z,98431.53
2023-04-18T17:43:31.483Z,98446.69
2023-04-18T17:46:48.192Z,98443.50
2023-04-18T17:49:55.029Z,98445.41
2023-04-18T17:53:01.814Z,98443.75
2023-04-18T17:56:15.214Z,98451.50
2023-04-18T17:59:22.127Z,98448.69
2023-04-18T18:02:31.229Z,98448.06
2023-04-18T18:05:38.146Z,98441.97
2023-04-18T18:08:46.209Z,98443.94
2023-04-18T18:11:55.772Z,98448.69
2023-04-18T18:15:04.950Z,98450.03
2023-04-18T18:18:15.322Z,98460.41
2023-04-18T18:21:21.397Z,98454.34
2023-04-18T18:24:28.479Z,98452.66
2023-04-18T18:27:34.762Z,98457.47
2023-04-18T18:30:41.559Z,98460.88
2023-04-18T18:33:50.111Z,98459.22
2023-04-18T18:36:59.541Z,98458.84
2023-04-18T18:40:08.629Z,98460.53
2023-04-18T18:43:16.768Z,98451.78
2023-04-18T18:46:22.936Z,98459.16
2023-04-18T18:49:32.373Z,98454.09
2023-04-18T18:52:40.956Z,98459.81
2023-04-18T18:55:55.881Z,98463.06
2023-04-18T18:59:05.061Z,98460.41
2023-04-18T19:02:11.985Z,98459.63
2023-04-18T19:05:21.626Z,98457.53
2023-04-18T19:08:28.480Z,98462.84
2023-04-18T19:11:35.055Z,98459.75
2023-04-18T19:14:56.018Z,98459.66
2023-04-18T19:18:02.133Z,98461.06
2023-04-18T19:21:13.695Z,98456.56
2023-04-18T19:24:20.985Z,98457.44
2023-04-18T19:27:27.845Z,98458.13
2023-04-18T19:30:33.861Z,98461.06
2023-04-18T19:33:41.696Z,98458.06
2023-04-18T19:36:50.246Z,98449.88
2023-04-18T19:40:02.987Z,98451.25
2023-04-18T19:43:09.105Z,98455.66
2023-04-18T19:46:16.340Z,98453.88
2023-04-18T19:49:22.716Z,98460.41
2023-04-18T19:52:35.459Z,98462.06
2023-04-18T19:55:44.309Z,98457.50
2023-04-18T19:58:51.383Z,98453.84
2023-04-18T20:02:00.564Z,98450.38
2023-04-18T20:05:23.247Z,98448.41
2023-04-18T20:08:31.857Z,98453.38
2023-04-18T20:11:38.583Z,98449.84
2023-04-18T20:14:45.515Z,98446.22
2023-04-18T20:17:54.551Z,98447.22
2023-04-18T20:21:00.789Z,98448.25
2023-04-18T20:24:12.083Z,98441.78
2023-04-18T20:27:20.738Z,98445.91
2023-04-18T20:30:27.890Z,98439.78
2023-04-18T20:33:36.437Z,98447.22
2023-04-18T20:36:44.106Z,98447.06
2023-04-18T20:39:53.204Z,98435.28
2023-04-18T20:43:10.246Z,98435.75
2023-04-18T20:46:29.679Z,98431.25
2023-04-18T20:49:43.298Z,98439.25
2023-04-18T20:52:49.389Z,98427.59
2023-04-18T20:55:58.851Z,98428.06
2023-04-18T20:59:04.950Z,98428.56
2023-04-18T21:02:12.133Z,98423.22
2023-04-18T21:05:18.061Z,98413.94
2023-04-18T21:08:24.866Z,98422.41
2023-04-18T21:11:33.462Z,98409.25
2023-04-18T21:14:40.273Z,98410.22
2023-04-18T21:17:46.287Z,98405.09
2023-04-18T21:20:53.449Z,98394.63
2023-04-18T21:23:59.385Z,98401.13
2023-04-18T21:27:13.676Z,98390.34
2023-04-18T21:30:19.636Z,98396.28
2023-04-18T21:33:26.495Z,98391.81
2023-04-18T21:36:34.294Z,98387.81
2023-04-18T21:39:46.257Z,98390.69
2023-04-18T21:42:54.757Z,98387.72
2023-04-18T21:46:01.517Z,98381.56
2023-04-18T21:49:16.371Z,98378.28
2023-04-18T21:52:23.134Z,98372.75
2023-04-18T21:55:29.228Z,98378.75
2023-04-18T21:58:38.887Z,98369.09
2023-04-18T22:01:49.082Z,98369.22
2023-04-18T22:04:56.116Z,98368.06
2023-04-18T22:08:03.264Z,98361.09
2023-04-18T22:11:11.903Z,98361.41
2023-04-18T22:14:23.785Z,98352.75
2023-04-18T22:17:31.885Z,98358.38
2023-04-18T22:20:39.275Z,98351.88
2023-04-18T22:23:46.003Z,98348.19
2023-04-18T22:26:52.004Z,98348.72
2023-04-18T22:30:04.361Z,98338.03
2023-04-18T22:33:10.527Z,98336.31
2023-04-18T22:36:27.886Z,98339.28
2023-04-18T22:39:34.300Z,98334.09
2023-04-18T22:42:41.164Z,98331.59
2023-04-18T22:45:49.785Z,98323.25
2023-04-18T22:49:02.846Z,98319.00
2023-04-18T22:52:12.235Z,98320.34
2023-04-18T22:55:24.263Z,98310.94
2023-04-18T22:58:31.651Z,98307.09
2023-04-18T23:01:41.110Z,98304.63
2023-04-18T23:04:47.345Z,98295.00
2023-04-18T23:07:54.201Z,98295.81
2023-04-18T23:11:00.118Z,98293.00
2023-04-18T23:14:29.266Z,98284.88
2023-04-18T23:17:37.916Z,98277.53
2023-04-18T23:20:44.810Z,98276.84
2023-04-18T23:23:50.976Z,98267.91
2023-04-18T23:26:58.067Z,98273.91
2023-04-18T23:30:04.120Z,98259.31
2023-04-18T23:33:13.614Z,98260.97
2023-04-18T23:36:24.262Z,98251.63
2023-04-18T23:39:33.243Z,98253.47
2023-04-18T23:42:44.278Z,98250.25
2023-04-18T23:45:51.090Z,98244.06
2023-04-18T23:48:59.526Z,98240.06
2023-04-18T23:52:07.541Z,98237.91
2023-04-18T23:55:13.945Z,98240.59
2023-04-18T23:58:20.700Z,98236.28
